Overview Statistics Trail Chart Weather Telemetry Raw packets
 

This is the latest recevied weather packets stored in our database for station/object XE2RCS-1. If no packets are shown the sender has not sent any weather packets the latest 10 day(s).

<< 41 42 43 44 45 46 47 >>
Time Temp. Humidity Pressure Rain* Wind** Luminosity Snow
1788041438 24.44° C 40% 1016 hPa 0 mm - - -
1788040838 24.44° C 42% 1016 hPa 0 mm - - -
1788040237 25° C 39% 1016 hPa 0 mm - - -
1788039636 25.56° C 38% 1016 hPa 0 mm - - -
1788039036 25.56° C 38% 1016 hPa 0 mm - - -
1788038435 25.56° C 39% 1015 hPa 0 mm - - -
1788037834 25.56° C 39% 1015 hPa 0 mm - - -
1788037234 25.56° C 40% 1015 hPa 0 mm - - -
1788036633 25.56° C 41% 1015 hPa 0 mm - - -
1788036033 23.89° C 46% 1015 hPa 0 mm - - -
1788035432 23.89° C 49% 1016 hPa 0 mm - - -
1788034831 25.56° C 44% 1016 hPa 0 mm - - -
1788034231 26.67° C 41% 1016 hPa 0 mm - - -
1788033630 26.67° C 41% 1016 hPa 0 mm - - -
1788033030 26.11° C 42% 1016 hPa 0 mm - - -
1788032429 26.67° C 45% 1017 hPa 0 mm - - -
1788031828 26.67° C 45% 1017 hPa 0 mm - - -
1788031228 26.67° C 44% 1017 hPa 0 mm - - -
1788030627 26.67° C 43% 1017 hPa 0 mm - - -
1788030026 27.22° C 42% 1017 hPa 0 mm - - -
1788029426 26.11° C 42% 1017 hPa 0 mm - - -
1788028816 26.11° C 43% 1017 hPa 0 mm - - -
1788028215 26.11° C 42% 1017 hPa 0 mm - - -
1788027614 26.11° C 43% 1018 hPa 0 mm - - -
1788027014 26.67° C 42% 1018 hPa 0 mm - - -

* Rain latest hour (hover to see other rain measurements)
** Current wind speed in m/s (hover to see current wind gust speed)